Snoqualmie River: South Fork station

back to: Snoqualmie river
South Fork station Summary - (NOAA Hydrograph: GARW1)
Latest reading:
Mon08/19 11:15 am 9.96 ft 41 cfs (steady)
Past 24hr max:
Sun08/18 12:15 pm 9.98 ft 44 cfs
Forecasted crests: (published Mon 08/19/19 08:57 am)
Wed08/21 05:00 pm 10.1 ft 61 cfs

South Fork station Details

Latest Readings

Last 100 Readings:
Mon08/19 11:15 am 9.96 ft 41 cfs
Mon08/19 11:00 am 9.96 ft 41 cfs
Mon08/19 10:45 am 9.96 ft 41 cfs
Mon08/19 10:30 am 9.96 ft 41 cfs
Mon08/19 10:15 am 9.96 ft 41 cfs
Mon08/19 10:00 am 9.96 ft 41 cfs
Mon08/19 09:45 am 9.96 ft 41 cfs
Mon08/19 09:30 am 9.96 ft 41 cfs
Mon08/19 09:15 am 9.95 ft 40 cfs
Mon08/19 09:00 am 9.95 ft 40 cfs
Mon08/19 08:45 am 9.96 ft 41 cfs
Mon08/19 08:30 am 9.96 ft 41 cfs
Mon08/19 08:15 am 9.96 ft 41 cfs
Mon08/19 08:00 am 9.95 ft 40 cfs
Mon08/19 07:45 am 9.96 ft 41 cfs
Mon08/19 07:30 am 9.95 ft 40 cfs
Mon08/19 07:15 am 9.96 ft 41 cfs
Mon08/19 07:00 am 9.95 ft 40 cfs
Mon08/19 06:45 am 9.96 ft 41 cfs
Mon08/19 06:30 am 9.95 ft 40 cfs
Mon08/19 06:15 am 9.96 ft 41 cfs
Mon08/19 06:00 am 9.96 ft 41 cfs
Mon08/19 05:45 am 9.95 ft 40 cfs
Mon08/19 05:30 am 9.96 ft 41 cfs
Mon08/19 05:15 am 9.95 ft 40 cfs
Mon08/19 05:00 am 9.96 ft 41 cfs
Mon08/19 04:45 am 9.96 ft 41 cfs
Mon08/19 04:30 am 9.96 ft 41 cfs
Mon08/19 04:15 am 9.96 ft 41 cfs
Mon08/19 04:00 am 9.96 ft 41 cfs
Mon08/19 03:45 am 9.96 ft 41 cfs
Mon08/19 03:30 am 9.96 ft 41 cfs
Mon08/19 03:15 am 9.95 ft 40 cfs
Mon08/19 03:00 am 9.96 ft 41 cfs
Mon08/19 02:45 am 9.96 ft 41 cfs
Mon08/19 02:30 am 9.96 ft 41 cfs
Mon08/19 02:15 am 9.96 ft 41 cfs
Mon08/19 02:00 am 9.96 ft 41 cfs
Mon08/19 01:45 am 9.96 ft 41 cfs
Mon08/19 01:30 am 9.96 ft 41 cfs
Mon08/19 01:15 am 9.96 ft 41 cfs
Mon08/19 01:00 am 9.96 ft 41 cfs
Mon08/19 12:45 am 9.96 ft 41 cfs
Mon08/19 12:30 am 9.96 ft 41 cfs
Mon08/19 12:15 am 9.96 ft 41 cfs
Mon08/19 12:00 am 9.96 ft 41 cfs
Sun08/18 11:45 pm 9.96 ft 41 cfs
Sun08/18 11:30 pm 9.96 ft 41 cfs
Sun08/18 11:15 pm 9.96 ft 41 cfs
Sun08/18 11:00 pm 9.96 ft 41 cfs
Sun08/18 10:45 pm 9.96 ft 41 cfs
Sun08/18 10:30 pm 9.96 ft 41 cfs
Sun08/18 10:15 pm 9.96 ft 41 cfs
Sun08/18 10:00 pm 9.96 ft 41 cfs
Sun08/18 09:45 pm 9.96 ft 41 cfs
Sun08/18 09:30 pm 9.96 ft 41 cfs
Sun08/18 09:15 pm 9.96 ft 41 cfs
Sun08/18 09:00 pm 9.96 ft 41 cfs
Sun08/18 08:45 pm 9.96 ft 41 cfs
Sun08/18 08:30 pm 9.96 ft 41 cfs
Sun08/18 08:15 pm 9.96 ft 41 cfs
Sun08/18 08:00 pm 9.96 ft 41 cfs
Sun08/18 07:45 pm 9.96 ft 41 cfs
Sun08/18 07:30 pm 9.96 ft 41 cfs
Sun08/18 07:15 pm 9.96 ft 41 cfs
Sun08/18 07:00 pm 9.96 ft 41 cfs
Sun08/18 06:45 pm 9.96 ft 41 cfs
Sun08/18 06:30 pm 9.97 ft 42 cfs
Sun08/18 06:15 pm 9.97 ft 42 cfs
Sun08/18 06:00 pm 9.97 ft 42 cfs
Sun08/18 05:45 pm 9.96 ft 41 cfs
Sun08/18 05:30 pm 9.97 ft 42 cfs
Sun08/18 05:15 pm 9.96 ft 41 cfs
Sun08/18 05:00 pm 9.97 ft 42 cfs
Sun08/18 04:45 pm 9.97 ft 42 cfs
Sun08/18 04:30 pm 9.97 ft 42 cfs
Sun08/18 04:15 pm 9.97 ft 42 cfs
Sun08/18 04:00 pm 9.97 ft 42 cfs
Sun08/18 03:45 pm 9.97 ft 42 cfs
Sun08/18 03:30 pm 9.94 ft 39 cfs
Sun08/18 03:15 pm 9.95 ft 40 cfs
Sun08/18 03:00 pm 9.95 ft 40 cfs
Sun08/18 02:45 pm 9.94 ft 39 cfs
Sun08/18 02:30 pm 9.96 ft 41 cfs
Sun08/18 02:15 pm 9.97 ft 42 cfs
Sun08/18 02:00 pm 9.97 ft 42 cfs
Sun08/18 01:45 pm 9.94 ft 39 cfs
Sun08/18 01:30 pm 9.97 ft 42 cfs
Sun08/18 01:15 pm 9.97 ft 42 cfs
Sun08/18 01:00 pm 9.98 ft 44 cfs
Sun08/18 12:45 pm 9.96 ft 41 cfs
Sun08/18 12:30 pm 9.98 ft 44 cfs
Sun08/18 12:15 pm 9.98 ft 44 cfs
Sun08/18 12:00 pm 9.97 ft 42 cfs
Sun08/18 11:45 am 9.94 ft 39 cfs
Sun08/18 11:30 am 9.96 ft 41 cfs
Sun08/18 11:15 am 9.95 ft 40 cfs
Sun08/18 11:00 am 9.97 ft 42 cfs
Sun08/18 10:45 am 9.97 ft 42 cfs
Sun08/18 10:30 am 9.97 ft 42 cfs

Latest Forecasts

Currently Forecasted Readings:
Mon08/19 11:00 am 9.95 ft 40 cfs
Mon08/19 05:00 pm 9.94 ft 39 cfs
Mon08/19 11:00 pm 9.94 ft 39 cfs
Tue08/20 05:00 am 9.94 ft 39 cfs
Tue08/20 11:00 am 9.94 ft 38 cfs
Tue08/20 05:00 pm 9.94 ft 38 cfs
Tue08/20 11:00 pm 9.94 ft 38 cfs
Wed08/21 05:00 am 9.94 ft 38 cfs
Wed08/21 11:00 am 9.97 ft 42 cfs
Wed08/21 05:00 pm 10.1 ft 61 cfs
Wed08/21 11:00 pm 10.04 ft 52 cfs
Thu08/22 05:00 am 9.98 ft 44 cfs
Thu08/22 11:00 am 9.94 ft 38 cfs
Thu08/22 05:00 pm 9.93 ft 37 cfs
Thu08/22 11:00 pm 9.92 ft 37 cfs
Fri08/23 05:00 am 9.92 ft 36 cfs
Fri08/23 11:00 am 9.92 ft 36 cfs
Fri08/23 05:00 pm 9.92 ft 36 cfs
Fri08/23 11:00 pm 9.92 ft 36 cfs
Sat08/24 05:00 am 9.91 ft 36 cfs
Sat08/24 11:00 am 9.91 ft 35 cfs
Sat08/24 05:00 pm 9.91 ft 35 cfs
Sat08/24 11:00 pm 9.91 ft 35 cfs
Sun08/25 05:00 am 9.91 ft 35 cfs
Sun08/25 11:00 am 9.9 ft 35 cfs
Sun08/25 05:00 pm 9.9 ft 34 cfs
Sun08/25 11:00 pm 9.9 ft 34 cfs
Mon08/26 05:00 am 9.9 ft 34 cfs
Mon08/26 11:00 am 9.9 ft 34 cfs
Mon08/26 05:00 pm 9.9 ft 34 cfs
Mon08/26 11:00 pm 9.89 ft 34 cfs
Tue08/27 05:00 am 9.89 ft 33 cfs
Tue08/27 11:00 am 9.89 ft 33 cfs
Tue08/27 05:00 pm 9.89 ft 33 cfs
Tue08/27 11:00 pm 9.89 ft 33 cfs
Wed08/28 05:00 am 9.89 ft 33 cfs
Wed08/28 11:00 am 9.89 ft 33 cfs
Wed08/28 05:00 pm 9.89 ft 33 cfs
Wed08/28 11:00 pm 9.88 ft 32 cfs
Thu08/29 05:00 am 9.9 ft 34 cfs

Snoqualmie River flood gauge data supplied by the
National Weather Service Northwest River Forecast Center.

Sign up for Floodzilla alerts.